Felix-Klein-Gymnasium, Gttingen, 150m NN
Donnes mto: Actuelle Donnerstag, 16.08.2018 13:45
Date Horaire Temp. E. Hum. E. P.atmo. Pluie Vent Direction Direction Ensoleilleme P. de rose Temp au vent Rafales
16.08.2018 13:45 26,8 C 47 % 1013,2 hPa 0,0 mm 3,1 km/h (1 Bft) SE 142 15 min 14,5 C 26,8 C 19,3 km/h (3 Bft)
16.08.2018 13:30 26,7 C 47 % 1013,4 hPa 0,0 mm 3,6 km/h (1 Bft) N-NE 30 15 min 14,4 C 26,7 C 12,9 km/h (3 Bft)
16.08.2018 13:15 26,2 C 47 % 1013,5 hPa 0,0 mm 5,8 km/h (2 Bft) NE 36 15 min 14,0 C 26,2 C 17,7 km/h (3 Bft)
16.08.2018 13:00 26,7 C 48 % 1013,7 hPa 0,0 mm 1,2 km/h (1 Bft) E-NE 65 15 min 14,8 C 26,7 C 8,0 km/h (2 Bft)
16.08.2018 12:45 25,1 C 50 % 1013,9 hPa 0,0 mm 3,6 km/h (1 Bft) N 353 15 min 13,9 C 25,1 C 19,3 km/h (3 Bft)
16.08.2018 12:30 24,9 C 50 % 1014,0 hPa 0,0 mm 3,5 km/h (1 Bft) N-NE 15 15 min 13,7 C 24,9 C 16,1 km/h (3 Bft)
16.08.2018 12:15 25,4 C 49 % 1014,1 hPa 0,0 mm 2,5 km/h (1 Bft) E-NE 57 15 min 13,9 C 25,4 C 11,3 km/h (2 Bft)
16.08.2018 12:00 24,7 C 50 % 1014,4 hPa 0,0 mm 5,0 km/h (1 Bft) E 84 15 min 13,6 C 24,7 C 24,1 km/h (4 Bft)
16.08.2018 11:45 24,5 C 51 % 1014,5 hPa 0,0 mm 3,3 km/h (1 Bft) NE 34 15 min 13,7 C 24,5 C 17,7 km/h (3 Bft)
16.08.2018 11:30 24,4 C 51 % 1014,7 hPa 0,0 mm 2,9 km/h (1 Bft) N-NE 17 15 min 13,6 C 24,4 C 11,3 km/h (2 Bft)
16.08.2018 11:15 24,0 C 53 % 1014,8 hPa 0,0 mm 3,6 km/h (1 Bft) NE 37 15 min 13,8 C 24,0 C 16,1 km/h (3 Bft)
16.08.2018 11:00 23,6 C 53 % 1015,0 hPa 0,0 mm 2,5 km/h (1 Bft) E 98 15 min 13,4 C 23,6 C 11,3 km/h (2 Bft)
16.08.2018 10:45 23,2 C 55 % 1015,1 hPa 0,0 mm 2,1 km/h (1 Bft) E-NE 62 15 min 13,6 C 23,2 C 14,5 km/h (3 Bft)
16.08.2018 10:30 22,2 C 60 % 1015,3 hPa 0,0 mm 2,7 km/h (1 Bft) E 91 15 min 14,1 C 22,2 C 12,9 km/h (3 Bft)
16.08.2018 10:15 21,2 C 63 % 1015,4 hPa 0,0 mm 2,6 km/h (1 Bft) N 358 15 min 13,9 C 21,2 C 11,3 km/h (2 Bft)
16.08.2018 10:00 20,7 C 64 % 1015,4 hPa 0,0 mm 2,7 km/h (1 Bft) E 83 15 min 13,6 C 20,7 C 11,3 km/h (2 Bft)
16.08.2018 09:45 19,6 C 68 % 1015,6 hPa 0,0 mm 1,4 km/h (1 Bft) E-NE 66 15 min 13,5 C 19,6 C 8,0 km/h (2 Bft)
16.08.2018 09:30 18,8 C 71 % 1015,7 hPa 0,0 mm 0,4 km/h (0 Bft) NE 51 15 min 13,4 C 18,8 C 4,8 km/h (1 Bft)
16.08.2018 09:15 17,7 C 75 % 1015,7 hPa 0,0 mm 0,4 km/h (0 Bft) NE 39 15 min 13,2 C 17,7 C 4,8 km/h (1 Bft)
16.08.2018 09:00 17,2 C 77 % 1015,8 hPa 0,0 mm 0,5 km/h (0 Bft) NE 38 15 min 13,1 C 17,2 C 4,8 km/h (1 Bft)
16.08.2018 08:45 16,6 C 79 % 1015,9 hPa 0,0 mm 0,0 km/h (0 Bft) NE 37 15 min 12,9 C 16,6 C 0,0 km/h (0 Bft)
16.08.2018 08:30 15,3 C 83 % 1016,0 hPa 0,0 mm 0,0 km/h (0 Bft) NE 37 15 min 12,4 C 15,3 C 0,0 km/h (0 Bft)
16.08.2018 08:15 15,0 C 82 % 1016,0 hPa 0,0 mm 0,0 km/h (0 Bft) N 355 0 min 12,0 C 15,0 C 0,0 km/h (0 Bft)
16.08.2018 08:00 14,3 C 86 % 1016,1 hPa 0,0 mm 0,0 km/h (0 Bft) N-NO 339 0 min 12,0 C 14,3 C 0,0 km/h (0 Bft)
16.08.2018 07:45 13,2 C 90 % 1016,1 hPa 0,0 mm 0,0 km/h (0 Bft) N-NO 338 0 min 11,6 C 13,2 C 0,0 km/h (0 Bft)
16.08.2018 07:30 12,6 C 92 % 1016,2 hPa 0,0 mm 0,0 km/h (0 Bft) N-NO 336 0 min 11,3 C 12,6 C 0,0 km/h (0 Bft)
16.08.2018 07:15 12,3 C 92 % 1016,2 hPa 0,0 mm 0,0 km/h (0 Bft) N-NO 334 0 min 11,0 C 12,3 C 0,0 km/h (0 Bft)
16.08.2018 07:00 12,2 C 91 % 1016,2 hPa 0,0 mm 0,0 km/h (0 Bft) N-NO 334 0 min 10,8 C 12,2 C 0,0 km/h (0 Bft)
16.08.2018 06:45 12,2 C 91 % 1016,2 hPa 0,0 mm 0,0 km/h (0 Bft) N-NO 334 0 min 10,8 C 12,2 C 0,0 km/h (0 Bft)
16.08.2018 06:30 12,3 C 91 % 1016,3 hPa 0,0 mm 0,0 km/h (0 Bft) N-NO 334 0 min 10,9 C 12,3 C 0,0 km/h (0 Bft)
16.08.2018 06:15 12,3 C 90 % 1016,2 hPa 0,0 mm 0,0 km/h (0 Bft) N-NO 334 0 min 10,7 C 12,3 C 1,6 km/h (1 Bft)
16.08.2018 06:00 12,4 C 90 % 1016,2 hPa 0,0 mm 0,0 km/h (0 Bft) N-NE 32 0 min 10,8 C 12,4 C 0,0 km/h (0 Bft)
16.08.2018 05:45 12,5 C 90 % 1016,3 hPa 0,0 mm 0,0 km/h (0 Bft) NE 51 0 min 10,9 C 12,5 C 0,0 km/h (0 Bft)
16.08.2018 05:30 12,6 C 90 % 1016,4 hPa 0,0 mm 0,0 km/h (0 Bft) NE 51 0 min 11,0 C 12,6 C 0,0 km/h (0 Bft)
16.08.2018 05:15 12,6 C 90 % 1016,4 hPa 0,0 mm 0,0 km/h (0 Bft) NE 51 0 min 11,0 C 12,6 C 0,0 km/h (0 Bft)
16.08.2018 05:00 12,7 C 90 % 1016,4 hPa 0,0 mm 0,0 km/h (0 Bft) NE 51 0 min 11,1 C 12,7 C 0,0 km/h (0 Bft)
16.08.2018 04:45 12,7 C 90 % 1016,5 hPa 0,0 mm 0,0 km/h (0 Bft) NE 51 0 min 11,1 C 12,7 C 0,0 km/h (0 Bft)
16.08.2018 04:30 12,8 C 89 % 1016,5 hPa 0,0 mm 0,0 km/h (0 Bft) NE 51 0 min 11,0 C 12,8 C 0,0 km/h (0 Bft)
16.08.2018 04:15 12,9 C 89 % 1016,5 hPa 0,0 mm 0,0 km/h (0 Bft) NE 50 0 min 11,1 C 12,9 C 0,0 km/h (0 Bft)
16.08.2018 04:00 13,1 C 89 % 1016,6 hPa 0,0 mm 0,0 km/h (0 Bft) NE 50 0 min 11,3 C 13,1 C 0,0 km/h (0 Bft)
16.08.2018 03:45 13,2 C 89 % 1016,6 hPa 0,0 mm 0,0 km/h (0 Bft) NE 50 0 min 11,4 C 13,2 C 0,0 km/h (0 Bft)
16.08.2018 03:30 13,2 C 88 % 1016,7 hPa 0,0 mm 0,0 km/h (0 Bft) NE 50 0 min 11,3 C 13,2 C 3,2 km/h (1 Bft)
16.08.2018 03:15 13,4 C 88 % 1016,8 hPa 0,0 mm 0,0 km/h (0 Bft) NE 50 0 min 11,5 C 13,4 C 1,6 km/h (1 Bft)
16.08.2018 03:00 13,6 C 88 % 1016,8 hPa 0,0 mm 0,0 km/h (0 Bft) NE 50 0 min 11,6 C 13,6 C 1,6 km/h (1 Bft)
16.08.2018 02:45 13,7 C 87 % 1016,8 hPa 0,0 mm 0,0 km/h (0 Bft) NE 49 0 min 11,6 C 13,7 C 1,6 km/h (1 Bft)
16.08.2018 02:30 13,9 C 87 % 1016,8 hPa 0,0 mm 0,0 km/h (0 Bft) NE 50 0 min 11,8 C 13,9 C 0,0 km/h (0 Bft)
16.08.2018 02:15 14,1 C 86 % 1016,9 hPa 0,0 mm 0,0 km/h (0 Bft) NE 49 0 min 11,8 C 14,1 C 0,0 km/h (0 Bft)
16.08.2018 02:00 14,3 C 86 % 1016,9 hPa 0,0 mm 0,0 km/h (0 Bft) NE 49 0 min 12,0 C 14,3 C 0,0 km/h (0 Bft)
16.08.2018 01:45 14,4 C 86 % 1017,0 hPa 0,0 mm 0,0 km/h (0 Bft) NE 49 0 min 12,1 C 14,4 C 1,6 km/h (1 Bft)
16.08.2018 01:30 14,6 C 85 % 1017,0 hPa 0,0 mm 0,0 km/h (0 Bft) NE 49 0 min 12,1 C 14,6 C 0,0 km/h (0 Bft)
16.08.2018 01:15 15,0 C 84 % 1017,0 hPa 0,0 mm 0,0 km/h (0 Bft) NE 49 0 min 12,3 C 15,0 C 1,6 km/h (1 Bft)
16.08.2018 01:00 15,2 C 83 % 1017,0 hPa 0,0 mm 0,0 km/h (0 Bft) NE 47 0 min 12,3 C 15,2 C 1,6 km/h (1 Bft)
16.08.2018 00:45 15,3 C 83 % 1017,0 hPa 0,0 mm 0,0 km/h (0 Bft) NE 47 0 min 12,4 C 15,3 C 0,0 km/h (0 Bft)
16.08.2018 00:30 15,4 C 82 % 1017,0 hPa 0,0 mm 0,0 km/h (0 Bft) NE 47 0 min 12,3 C 15,4 C 0,0 km/h (0 Bft)
16.08.2018 00:15 15,6 C 82 % 1017,0 hPa 0,0 mm 0,0 km/h (0 Bft) NE 47 0 min 12,5 C 15,6 C 3,2 km/h (1 Bft)
16.08.2018 00:00 15,9 C 81 % 1017,0 hPa 0,0 mm 0,0 km/h (0 Bft) E 94 0 min 12,6 C 15,9 C 1,6 km/h (1 Bft)
15.08.2018 22:45 17,8 C 74 % 1016,9 hPa 0,0 mm 0,0 km/h (0 Bft) E 94 0 min 13,1 C 17,8 C 0,0 km/h (0 Bft)
15.08.2018 22:30 18,3 C 73 % 1017,0 hPa 0,0 mm 0,0 km/h (0 Bft) E 94 0 min 13,4 C 18,3 C 0,0 km/h (0 Bft)
15.08.2018 22:15 18,9 C 71 % 1017,0 hPa 0,0 mm 0,0 km/h (0 Bft) E 95 0 min 13,5 C 18,9 C 3,2 km/h (1 Bft)
15.08.2018 22:00 19,8 C 68 % 1016,9 hPa 0,0 mm 0,0 km/h (0 Bft) E-SE 112 0 min 13,7 C 19,8 C 1,6 km/h (1 Bft)
15.08.2018 21:45 20,6 C 66 % 1016,9 hPa 0,0 mm 0,0 km/h (0 Bft) E-SE 112 0 min 14,0 C 20,6 C 0,0 km/h (0 Bft)
15.08.2018 21:30 20,9 C 64 % 1016,9 hPa 0,0 mm 0,0 km/h (0 Bft) E-SE 112 0 min 13,8 C 20,9 C 0,0 km/h (0 Bft)
15.08.2018 21:15 21,3 C 62 % 1016,8 hPa 0,0 mm 0,0 km/h (0 Bft) E-SE 112 0 min 13,7 C 21,3 C 0,0 km/h (0 Bft)
15.08.2018 21:00 21,8 C 58 % 1016,7 hPa 0,0 mm 0,0 km/h (0 Bft) E-SE 112 0 min 13,2 C 21,8 C 0,0 km/h (0 Bft)
15.08.2018 20:45 21,8 C 58 % 1016,7 hPa 0,0 mm 0,0 km/h (0 Bft) E-SE 112 0 min 13,2 C 21,8 C 0,0 km/h (0 Bft)
15.08.2018 20:30 21,9 C 57 % 1016,7 hPa 0,0 mm 0,0 km/h (0 Bft) E-SE 112 0 min 13,0 C 21,9 C 0,0 km/h (0 Bft)
15.08.2018 20:15 22,1 C 57 % 1016,7 hPa 0,0 mm 0,0 km/h (0 Bft) E-SE 112 0 min 13,2 C 22,1 C 0,0 km/h (0 Bft)
15.08.2018 20:00 22,2 C 57 % 1016,7 hPa 0,0 mm 0,1 km/h (0 Bft) E-SE 112 0 min 13,3 C 22,2 C 3,2 km/h (1 Bft)
15.08.2018 19:45 22,3 C 57 % 1016,7 hPa 0,0 mm 0,3 km/h (0 Bft) E-SE 112 0 min 13,4 C 22,3 C 4,8 km/h (1 Bft)
15.08.2018 19:30 22,4 C 57 % 1016,6 hPa 0,0 mm 0,5 km/h (0 Bft) E-SE 113 0 min 13,5 C 22,4 C 6,4 km/h (2 Bft)
15.08.2018 19:15 22,5 C 57 % 1016,6 hPa 0,0 mm 0,3 km/h (0 Bft) E-SE 115 0 min 13,5 C 22,5 C 4,8 km/h (1 Bft)
15.08.2018 19:00 22,6 C 56 % 1016,6 hPa 0,0 mm 0,4 km/h (0 Bft) E-SE 106 0 min 13,4 C 22,6 C 8,0 km/h (2 Bft)
15.08.2018 18:45 22,7 C 55 % 1016,7 hPa 0,0 mm 0,9 km/h (0 Bft) E 92 0 min 13,2 C 22,7 C 6,4 km/h (2 Bft)
15.08.2018 18:30 22,8 C 55 % 1016,8 hPa 0,0 mm 0,9 km/h (0 Bft) NE 48 0 min 13,3 C 22,8 C 8,0 km/h (2 Bft)
15.08.2018 18:15 22,8 C 55 % 1016,8 hPa 0,0 mm 0,0 km/h (0 Bft) E 98 0 min 13,3 C 22,8 C 3,2 km/h (1 Bft)
15.08.2018 18:00 22,8 C 55 % 1016,8 hPa 0,0 mm 1,6 km/h (1 Bft) E 93 0 min 13,3 C 22,8 C 11,3 km/h (2 Bft)
15.08.2018 17:45 22,8 C 55 % 1016,8 hPa 0,0 mm 0,9 km/h (0 Bft) E 93 0 min 13,3 C 22,8 C 9,7 km/h (2 Bft)
15.08.2018 17:30 22,8 C 55 % 1016,8 hPa 0,0 mm 1,2 km/h (1 Bft) SE 142 0 min 13,3 C 22,8 C 11,3 km/h (2 Bft)
15.08.2018 17:15 22,9 C 55 % 1017,0 hPa 0,0 mm 0,3 km/h (0 Bft) E-NE 77 0 min 13,4 C 22,9 C 6,4 km/h (2 Bft)
15.08.2018 17:00 22,7 C 56 % 1017,0 hPa 0,0 mm 0,3 km/h (0 Bft) E 92 0 min 13,5 C 22,7 C 6,4 km/h (2 Bft)
15.08.2018 16:45 22,8 C 55 % 1016,9 hPa 0,0 mm 0,1 km/h (0 Bft) SE 124 0 min 13,3 C 22,8 C 4,8 km/h (1 Bft)
15.08.2018 16:30 22,5 C 55 % 1016,8 hPa 0,0 mm 0,9 km/h (0 Bft) S-SO 195 0 min 13,0 C 22,5 C 6,4 km/h (2 Bft)
15.08.2018 16:15 22,6 C 55 % 1016,8 hPa 0,0 mm 4,8 km/h (1 Bft) S-SE 161 0 min 13,1 C 22,6 C 12,9 km/h (3 Bft)
15.08.2018 16:00 22,9 C 53 % 1016,8 hPa 0,0 mm 1,9 km/h (1 Bft) S 171 0 min 12,8 C 22,9 C 8,0 km/h (2 Bft)
15.08.2018 15:45 23,1 C 52 % 1016,8 hPa 0,0 mm 0,3 km/h (0 Bft) SE 146 0 min 12,7 C 23,1 C 6,4 km/h (2 Bft)
15.08.2018 15:30 22,7 C 55 % 1016,8 hPa 0,0 mm 0,5 km/h (0 Bft) N-NO 347 0 min 13,2 C 22,7 C 8,0 km/h (2 Bft)
15.08.2018 15:15 22,4 C 56 % 1016,9 hPa 0,0 mm 0,3 km/h (0 Bft) E-NE 67 0 min 13,2 C 22,4 C 6,4 km/h (2 Bft)
15.08.2018 15:00 22,6 C 56 % 1016,9 hPa 0,0 mm 1,7 km/h (1 Bft) E 89 0 min 13,4 C 22,6 C 11,3 km/h (2 Bft)
15.08.2018 14:45 23,4 C 54 % 1016,8 hPa 0,0 mm 0,3 km/h (0 Bft) N-NE 30 0 min 13,6 C 23,4 C 6,4 km/h (2 Bft)
15.08.2018 14:30 22,9 C 55 % 1016,9 hPa 0,0 mm 2,1 km/h (1 Bft) NE 49 0 min 13,4 C 22,9 C 14,5 km/h (3 Bft)
15.08.2018 14:15 22,4 C 57 % 1017,1 hPa 0,0 mm 2,7 km/h (1 Bft) SE 126 15 min 13,5 C 22,4 C 11,3 km/h (2 Bft)
15.08.2018 14:00 21,9 C 58 % 1017,0 hPa 0,0 mm 6,0 km/h (2 Bft) S 176 0 min 13,3 C 21,9 C 14,5 km/h (3 Bft)
_ Min-Heure 06:45 13:15 13:45 - 18:15 - - - 06:15 06:45 20:15
Minimum _ 12,2 C 47 % 1013,2 hPa - 0,0 km/h (0 Bft) - - - 10,7 C 12,2 C 0,0 km/h (0 Bft)
_ Max-Heure 13:45 07:15 14:15 14:00 14:00 - - 14:15 13:00 13:45 12:00
Maximum _ 26,8 C 92 % 1017,1 hPa 0,0 mm 6,0 km/h
S (2 Bft)
- - 15 min 14,8 C 26,8 C 24,1 km/h
E (4 Bft)
Moyenne _ 19,1 C 69 % 1016,3 hPa #0,0 mm 1,2 km/h (1 Bft) E - #5:30 h 12,8 C 19,1 C 5,7 km/h (1 Bft)